Time;durP1;ratioP1;P1;durP2;ratioP2;P2;SDS_P1;SDS_P2;PMS_P1;PMS_P2;Temp;Humidity;BMP_temperature;BMP_pressure;BME280_temperature;BME280_humidity;BME280_pressure;Samples;Min_cycle;Max_cycle;Signal;HPM_P1;HPM_P2
2022/04/15 00:01:55;;;;;;;20.17;12.50;;;;;;;8.21;81.25;102432.22;5030577;28;20049;-77
2022/04/15 00:04:20;;;;;;;21.20;13.52;;;;;;;8.20;81.12;102430.41;5041013;28;20033;-77
2022/04/15 00:06:46;;;;;;;20.92;12.73;;;;;;;8.19;80.52;102433.94;5049454;28;20433;-77
2022/04/15 00:09:11;;;;;;;20.27;12.55;;;;;;;8.16;81.43;102433.91;5048882;28;20111;-77
2022/04/15 00:11:37;;;;;;;20.05;13.18;;;;;;;8.12;81.81;102440.88;5050927;28;20041;-77
2022/04/15 00:14:04;;;;;;;21.80;12.63;;;;;;;8.07;80.67;102433.75;5050243;28;20044;-78
2022/04/15 00:16:29;;;;;;;15.57;10.32;;;;;;;8.04;78.28;102436.38;5032846;28;20415;-77
2022/04/15 00:18:54;;;;;;;20.92;11.73;;;;;;;8.04;79.44;102434.59;5048900;28;20260;-77
2022/04/15 00:21:20;;;;;;;19.65;12.23;;;;;;;7.98;79.47;102424.84;5043536;28;20109;-77
2022/04/15 00:23:46;;;;;;;24.23;13.70;;;;;;;7.98;81.66;102434.50;5012467;28;20048;-77
2022/04/15 00:26:11;;;;;;;20.30;12.95;;;;;;;7.94;81.37;102430.94;5032754;28;20033;-78
2022/04/15 00:28:37;;;;;;;20.08;11.85;;;;;;;7.95;82.15;102435.34;5016059;28;20041;-77
2022/04/15 00:31:02;;;;;;;19.75;11.77;;;;;;;7.91;82.09;102433.56;5034128;28;20049;-78
2022/04/15 00:33:28;;;;;;;22.08;12.20;;;;;;;7.91;82.58;102437.91;5032516;28;20045;-78
2022/04/15 00:35:53;;;;;;;22.75;13.70;;;;;;;7.87;82.99;102442.28;5033903;28;20029;-78
2022/04/15 00:38:19;;;;;;;19.67;12.43;;;;;;;7.82;82.25;102441.31;5032346;28;20045;-78
2022/04/15 00:40:44;;;;;;;17.83;11.63;;;;;;;7.78;81.87;102444.75;5033883;28;20158;-78
2022/04/15 00:43:10;;;;;;;25.05;13.38;;;;;;;7.73;81.61;102452.59;5022801;28;20033;-78
2022/04/15 00:45:35;;;;;;;24.02;13.98;;;;;;;7.68;83.26;102454.28;5048123;28;20041;-78
2022/04/15 00:48:01;;;;;;;20.00;13.23;;;;;;;7.66;83.39;102461.28;5026815;28;20028;-78
2022/04/15 00:50:29;;;;;;;19.80;13.38;;;;;;;7.59;83.38;102455.88;5053282;28;20053;-77
2022/04/15 00:52:59;;;;;;;18.17;13.13;;;;;;;7.59;81.57;102467.34;5033591;28;20096;-78
2022/04/15 00:55:25;;;;;;;21.70;14.15;;;;;;;7.56;82.95;102463.75;5032083;28;20037;-78
2022/04/15 00:57:55;;;;;;;23.35;14.32;;;;;;;7.56;84.24;102464.63;5031967;28;20049;-77
2022/04/15 01:00:21;;;;;;;22.10;13.93;;;;;;;7.53;83.72;102462.81;5032001;28;20037;-78
2022/04/15 01:02:47;;;;;;;19.20;13.85;;;;;;;7.48;82.50;102451.31;5033159;28;20060;-78
2022/04/15 01:05:14;;;;;;;17.85;12.70;;;;;;;7.46;82.83;102452.16;5051238;28;20048;-78
2022/04/15 01:07:41;;;;;;;19.38;13.82;;;;;;;7.42;82.36;102456.50;5051700;28;20040;-78
2022/04/15 01:10:10;;;;;;;18.83;12.05;;;;;;;7.35;81.85;102465.16;5051960;28;20068;-78
2022/04/15 01:12:41;;;;;;;21.73;13.52;;;;;;;7.33;82.77;102465.13;5053029;28;20156;-78
2022/04/15 01:15:09;;;;;;;25.15;13.43;;;;;;;7.32;83.11;102468.63;5052861;28;20132;-78
2022/04/15 01:17:36;;;;;;;23.50;13.48;;;;;;;7.27;83.36;102457.13;5051535;28;20068;-78
2022/04/15 01:20:04;;;;;;;20.02;13.68;;;;;;;7.23;83.12;102463.19;5052842;28;20449;-78
2022/04/15 01:22:37;;;;;;;22.50;12.80;;;;;;;7.20;81.55;102462.25;5037783;28;20037;-78
2022/04/15 01:25:04;;;;;;;24.58;14.25;;;;;;;7.17;82.84;102468.38;5014735;28;20041;-78
2022/04/15 01:27:34;;;;;;;20.48;13.00;;;;;;;7.15;83.29;102477.09;5032909;28;20033;-78
2022/04/15 01:29:59;;;;;;;23.83;14.45;;;;;;;7.10;83.88;102471.75;5031489;28;20037;-78
2022/04/15 01:32:25;;;;;;;23.73;14.82;;;;;;;7.11;84.56;102476.13;5014820;28;20053;-77
2022/04/15 01:34:51;;;;;;;20.65;13.80;;;;;;;7.07;83.23;102476.94;5031038;28;20037;-78
2022/04/15 01:37:20;;;;;;;19.90;12.93;;;;;;;7.08;81.77;102474.34;5031162;28;20049;-78
2022/04/15 01:39:46;;;;;;;21.30;13.10;;;;;;;7.06;81.86;102476.06;5031383;28;20044;-78
2022/04/15 01:42:16;;;;;;;27.08;14.50;;;;;;;7.05;83.52;102466.38;5031166;28;20091;-78
2022/04/15 01:44:43;;;;;;;23.13;12.65;;;;;;;7.02;80.63;102476.88;5032101;28;20034;-78
2022/04/15 01:47:10;;;;;;;23.52;14.02;;;;;;;6.97;80.52;102467.97;5050277;28;20406;-77
2022/04/15 01:49:35;;;;;;;18.95;12.35;;;;;;;6.96;80.88;102478.50;5052430;28;20091;-78
2022/04/15 01:52:01;;;;;;;21.10;13.70;;;;;;;6.96;81.22;102481.13;5014733;28;20069;-78
2022/04/15 01:54:30;;;;;;;18.73;12.10;;;;;;;6.94;80.86;102481.09;5032326;28;20083;-78
2022/04/15 01:56:57;;;;;;;24.33;13.38;;;;;;;6.93;82.42;102488.97;5031721;28;20111;-78
2022/04/15 01:59:24;;;;;;;23.23;13.65;;;;;;;6.86;81.72;102488.84;5031103;28;20033;-78
2022/04/15 02:01:50;;;;;;;27.10;13.85;;;;;;;6.84;82.36;102487.91;5014658;28;20413;-77
2022/04/15 02:04:15;;;;;;;26.27;14.10;;;;;;;6.82;81.45;102492.25;5035419;28;20095;-78
2022/04/15 02:06:41;;;;;;;19.25;12.85;;;;;;;6.82;82.53;102494.88;5032372;28;20041;-78
2022/04/15 02:09:06;;;;;;;25.42;14.85;;;;;;;6.80;84.32;102495.72;5030429;28;20504;-78
2022/04/15 02:11:34;;;;;;;22.88;15.73;;;;;;;6.80;85.15;102490.44;5031013;28;20049;-78
2022/04/15 02:13:59;;;;;;;22.50;15.88;;;;;;;6.79;85.64;102489.56;5032251;28;20033;-78
2022/04/15 02:16:25;;;;;;;26.17;15.52;;;;;;;6.77;85.57;102499.19;5014570;28;20044;-78
2022/04/15 02:18:50;;;;;;;33.03;15.80;;;;;;;6.73;84.41;102499.09;5031956;28;20520;-78
2022/04/15 02:21:15;;;;;;;25.40;15.30;;;;;;;6.75;85.38;102506.19;5035538;28;20045;-78
2022/04/15 02:23:41;;;;;;;25.38;13.77;;;;;;;6.71;86.13;102508.72;5050439;28;20112;-78
2022/04/15 02:26:06;;;;;;;24.25;15.23;;;;;;;6.66;85.68;102508.63;5033892;28;20079;-78
2022/04/15 02:28:32;;;;;;;22.38;13.82;;;;;;;6.64;84.70;102516.47;5033739;28;20056;-78
2022/04/15 02:30:57;;;;;;;29.55;16.08;;;;;;;6.65;86.34;102518.25;5017655;28;20041;-78
2022/04/15 02:33:23;;;;;;;23.35;16.20;;;;;;;6.65;86.82;102512.09;5033669;28;20090;-78
2022/04/15 02:35:49;;;;;;;23.95;14.68;;;;;;;6.60;86.19;102513.72;5050311;28;20445;-78
2022/04/15 02:38:15;;;;;;;24.40;15.90;;;;;;;6.60;87.49;102519.91;5017079;28;20377;-78
2022/04/15 02:40:42;;;;;;;23.13;15.32;;;;;;;6.55;86.22;102521.56;5033726;28;20037;-81
2022/04/15 02:43:08;;;;;;;27.83;16.15;;;;;;;6.52;85.60;102515.31;5050202;28;20139;-81
2022/04/15 02:45:33;;;;;;;26.35;16.05;;;;;;;6.51;85.59;102521.47;5028594;28;20167;-81
2022/04/15 02:47:59;;;;;;;23.95;14.95;;;;;;;6.51;85.10;102522.34;5024392;28;20386;-78
2022/04/15 02:50:25;;;;;;;24.08;15.27;;;;;;;6.45;85.04;102522.19;5049948;28;20163;-78
2022/04/15 02:52:50;;;;;;;23.25;14.80;;;;;;;6.42;85.62;102520.38;5029822;28;20092;-78
2022/04/15 02:55:16;;;;;;;26.92;16.42;;;;;;;6.41;85.03;102523.00;5046986;28;20063;-78
2022/04/15 02:57:41;;;;;;;25.35;16.38;;;;;;;6.37;86.59;102523.78;5046631;28;20048;-78
2022/04/15 03:00:08;;;;;;;27.65;16.13;;;;;;;6.35;86.92;102528.09;5030031;28;20499;-78
2022/04/15 03:02:34;;;;;;;25.70;16.45;;;;;;;6.35;86.65;102525.47;5013360;28;20057;-77
2022/04/15 03:05:00;;;;;;;27.63;16.60;;;;;;;6.34;86.71;102521.97;5049760;28;20062;-78
2022/04/15 03:07:25;;;;;;;29.63;17.60;;;;;;;6.30;87.27;102517.47;5043044;28;20603;-78
2022/04/15 03:09:51;;;;;;;25.45;16.63;;;;;;;6.28;86.51;102523.56;5013392;28;20037;-78
2022/04/15 03:12:16;;;;;;;29.77;18.55;;;;;;;6.32;87.50;102523.66;5013456;28;20043;-78
2022/04/15 03:14:42;;;;;;;29.42;17.70;;;;;;;6.33;87.71;102528.09;5031313;28;20184;-78
2022/04/15 03:17:08;;;;;;;28.95;17.77;;;;;;;6.32;87.50;102522.78;5029675;28;20404;-78
2022/04/15 03:19:33;;;;;;;31.38;17.85;;;;;;;6.36;87.87;102527.28;5029747;28;20026;-78
2022/04/15 03:21:59;;;;;;;32.38;17.85;;;;;;;6.42;87.48;102530.03;5023855;28;20033;-78
2022/04/15 03:24:24;;;;;;;30.30;17.27;;;;;;;6.48;88.84;102532.81;5044161;28;20525;-78
2022/04/15 03:26:50;;;;;;;29.35;17.60;;;;;;;6.54;88.43;102527.66;5029263;28;20481;-78
2022/04/15 03:29:16;;;;;;;28.85;18.75;;;;;;;6.61;88.58;102529.56;5046116;28;20113;-78
2022/04/15 03:31:42;;;;;;;35.67;19.55;;;;;;;6.68;90.03;102528.84;5029659;28;20037;-77
2022/04/15 03:34:07;;;;;;;40.67;20.70;;;;;;;6.72;89.59;102534.19;5029364;28;20037;-78
2022/04/15 03:36:33;;;;;;;32.90;19.55;;;;;;;6.77;90.06;102535.16;5046246;28;20046;-81
2022/04/15 03:38:58;;;;;;;37.78;21.33;;;;;;;6.82;90.00;102539.66;5046394;28;20041;-81
2022/04/15 03:41:24;;;;;;;58.50;20.83;;;;;;;6.86;90.82;102530.97;5031369;28;20038;-80
2022/04/15 03:43:50;;;;;;;86.60;21.40;;;;;;;6.88;91.66;102537.16;5029941;28;20422;-78
2022/04/15 03:46:16;;;;;;;53.85;19.65;;;;;;;6.88;91.25;102537.16;5032088;28;20465;-78
2022/04/15 03:48:41;;;;;;;30.73;17.95;;;;;;;6.89;91.04;102540.69;5048164;28;20043;-78
2022/04/15 03:51:08;;;;;;;49.38;16.20;;;;;;;6.89;90.67;102538.94;5046411;28;20068;-78
2022/04/15 03:53:35;;;;;;;85.20;15.60;;;;;;;6.88;91.78;102544.19;5030577;28;20082;-78
2022/04/15 03:56:00;;;;;;;76.28;17.13;;;;;;;6.87;91.47;102542.38;5012909;28;20505;-78
2022/04/15 03:58:26;;;;;;;44.35;16.17;;;;;;;6.86;92.00;102553.78;5030287;28;20041;-78
2022/04/15 04:00:53;;;;;;;71.50;15.93;;;;;;;6.87;92.51;102555.56;5033364;28;20346;-78
2022/04/15 04:03:18;;;;;;;17.92;12.32;;;;;;;6.86;90.81;102561.69;5037100;28;20052;-78
2022/04/15 04:05:44;;;;;;;64.25;13.38;;;;;;;6.84;90.89;102566.91;5053319;28;20045;-77
2022/04/15 04:08:10;;;;;;;39.17;12.65;;;;;;;6.86;91.22;102564.31;5052874;28;20123;-78
2022/04/15 04:10:35;;;;;;;38.20;13.52;;;;;;;6.88;91.64;102573.16;5053035;28;20385;-78
2022/04/15 04:13:02;;;;;;;72.47;14.15;;;;;;;6.90;91.33;102566.19;5052975;28;20052;-77
2022/04/15 04:15:29;;;;;;;30.17;13.23;;;;;;;6.87;91.04;102559.09;5053024;28;20495;-78
2022/04/15 04:17:56;;;;;;;31.23;13.65;;;;;;;6.89;90.90;102565.25;5054203;28;20118;-78
2022/04/15 04:20:22;;;;;;;16.30;12.18;;;;;;;6.91;91.62;102567.06;5052908;28;20021;-78
2022/04/15 04:22:48;;;;;;;45.42;13.20;;;;;;;6.93;91.40;102575.88;5050657;28;20460;-77
2022/04/15 04:25:13;;;;;;;35.03;13.98;;;;;;;6.94;91.46;102575.91;5024233;28;20030;-78
2022/04/15 04:27:41;;;;;;;60.15;14.70;;;;;;;6.96;91.54;102586.47;5033484;28;20446;-78
2022/04/15 04:30:08;;;;;;;42.75;14.27;;;;;;;6.94;91.78;102577.66;5033367;28;20424;-78
2022/04/15 04:32:33;;;;;;;36.10;15.07;;;;;;;6.95;92.04;102574.16;5032206;28;20032;-78
2022/04/15 04:34:59;;;;;;;34.72;14.55;;;;;;;6.94;92.77;102577.66;5031828;28;20409;-78
2022/04/15 04:37:25;;;;;;;24.23;15.57;;;;;;;6.95;92.38;102579.41;5031861;28;20045;-78
2022/04/15 04:39:50;;;;;;;23.00;15.52;;;;;;;7.01;91.77;102592.72;5033616;28;20490;-78
2022/04/15 04:42:24;;;;;;;23.83;15.52;;;;;;;7.03;92.81;102593.66;5015151;28;20046;-78
2022/04/15 04:44:52;;;;;;;21.20;14.90;;;;;;;7.03;91.63;102586.63;5032052;28;20072;-78
2022/04/15 04:47:20;;;;;;;22.52;14.88;;;;;;;7.05;91.48;102594.59;5040211;28;20040;-78
2022/04/15 04:49:46;;;;;;;26.20;15.52;;;;;;;7.06;92.04;102599.84;5034818;28;20099;-77
2022/04/15 04:52:13;;;;;;;27.45;16.20;;;;;;;7.09;92.32;102592.00;5037841;28;20069;-78
2022/04/15 04:54:39;;;;;;;24.40;14.70;;;;;;;7.10;92.68;102598.19;5030831;28;20120;-78
2022/04/15 04:57:05;;;;;;;20.58;15.43;;;;;;;7.07;92.59;102601.66;5014980;28;20056;-78
2022/04/15 04:59:32;;;;;;;22.10;14.23;;;;;;;7.07;92.65;102600.75;5031630;28;20033;-78
2022/04/15 05:01:58;;;;;;;18.67;13.95;;;;;;;7.10;92.89;102598.19;5015041;28;20083;-78
2022/04/15 05:04:24;;;;;;;21.33;14.20;;;;;;;7.15;92.86;102612.34;5031061;28;20034;-78
2022/04/15 05:06:49;;;;;;;21.63;14.90;;;;;;;7.19;92.59;102606.25;5034094;28;20042;-78
2022/04/15 05:09:15;;;;;;;20.23;14.40;;;;;;;7.24;92.75;102617.78;5014490;28;20125;-78
2022/04/15 05:11:42;;;;;;;21.60;15.18;;;;;;;7.26;92.61;102615.19;5030478;28;20111;-78
2022/04/15 05:14:07;;;;;;;22.27;14.90;;;;;;;7.27;92.14;102617.88;5031089;28;20041;-78
2022/04/15 05:16:33;;;;;;;21.60;15.48;;;;;;;7.29;92.65;102613.53;5031293;28;20040;-78
2022/04/15 05:18:59;;;;;;;23.15;15.07;;;;;;;7.29;92.57;102613.53;5033462;28;20063;-78
2022/04/15 05:21:24;;;;;;;26.10;16.15;;;;;;;7.33;92.81;102625.00;5038530;28;20067;-78
2022/04/15 05:23:50;;;;;;;21.88;15.00;;;;;;;7.37;93.13;102634.75;5016621;28;20053;-78
2022/04/15 05:26:15;;;;;;;24.90;16.73;;;;;;;7.38;92.69;102625.97;5015174;28;20040;-78
2022/04/15 05:28:41;;;;;;;30.48;16.98;;;;;;;7.41;92.58;102633.06;5031045;28;20036;-78
2022/04/15 05:31:08;;;;;;;26.83;16.67;;;;;;;7.45;92.80;102645.47;5030784;28;20038;-78
2022/04/15 05:33:34;;;;;;;23.02;15.85;;;;;;;7.45;92.80;102635.78;5030731;28;20040;-78
2022/04/15 05:35:59;;;;;;;23.30;15.80;;;;;;;7.51;93.04;102646.44;5030532;28;20049;-78
2022/04/15 05:38:25;;;;;;;29.23;17.40;;;;;;;7.54;92.72;102649.16;5033760;28;20087;-78
2022/04/15 05:40:50;;;;;;;26.30;17.00;;;;;;;7.54;93.15;102651.81;5030625;28;20474;-78
2022/04/15 05:43:16;;;;;;;24.67;17.98;;;;;;;7.56;93.03;102648.28;5016637;28;20441;-78
2022/04/15 05:45:42;;;;;;;27.48;16.98;;;;;;;7.59;92.86;102656.25;5027715;28;20045;-78
2022/04/15 05:48:08;;;;;;;25.98;16.90;;;;;;;7.63;92.72;102658.09;5015292;28;20065;-78
2022/04/15 05:50:34;;;;;;;27.85;17.23;;;;;;;7.64;93.00;102657.22;5033201;28;20060;-78
2022/04/15 05:52:59;;;;;;;29.17;17.00;;;;;;;7.64;92.47;102666.06;5040342;28;20052;-78
2022/04/15 05:55:25;;;;;;;28.48;16.85;;;;;;;7.68;92.16;102661.72;5030292;28;20033;-78
2022/04/15 05:57:50;;;;;;;27.65;16.50;;;;;;;7.69;92.48;102669.66;5030078;28;20393;-78
2022/04/15 06:00:16;;;;;;;25.55;16.63;;;;;;;7.73;92.17;102678.50;5029045;28;20037;-78
2022/04/15 06:02:42;;;;;;;26.38;15.68;;;;;;;7.77;91.74;102679.47;5029930;28;20029;-78
2022/04/15 06:05:08;;;;;;;21.13;15.02;;;;;;;7.77;92.05;102677.72;5051095;28;20110;-78
2022/04/15 06:07:34;;;;;;;23.85;16.15;;;;;;;7.80;91.92;102677.78;5037278;28;20441;-78
2022/04/15 06:10:00;;;;;;;23.02;15.77;;;;;;;7.83;92.07;102680.47;5031178;28;20132;-78
2022/04/15 06:12:54;;;;;;;28.15;15.63;;;;;;;7.88;92.06;102683.19;5031448;28;20097;-78
2022/04/15 06:15:31;;;;;;;20.15;12.50;;;;;;;7.92;91.88;102685.91;5029886;28;20485;-78
2022/04/15 06:18:00;;;;;;;18.75;12.13;;;;;;;7.93;91.66;102695.59;5031407;28;20473;-78
2022/04/15 06:20:27;;;;;;;17.17;11.50;;;;;;;7.96;90.97;102700.03;5029826;28;20064;-77
2022/04/15 06:22:53;;;;;;;16.20;12.23;;;;;;;7.98;91.66;102695.69;5032327;28;20056;-78
2022/04/15 06:25:19;;;;;;;17.17;11.02;;;;;;;8.02;91.70;102689.63;4997072;28;20033;-78
2022/04/15 06:27:45;;;;;;;16.88;11.48;;;;;;;8.07;91.07;102694.97;5029574;28;20109;-78
2022/04/15 06:30:11;;;;;;;21.13;12.52;;;;;;;8.12;91.48;102702.09;5030039;28;20509;-78
2022/04/15 06:32:37;;;;;;;21.23;12.75;;;;;;;8.16;90.92;102697.78;5029177;28;20112;-78
2022/04/15 06:35:06;;;;;;;23.35;12.70;;;;;;;8.18;91.49;102694.31;5030822;28;20022;-78
2022/04/15 06:37:32;;;;;;;17.23;11.93;;;;;;;8.21;91.04;102701.41;5030265;28;20080;-81
2022/04/15 06:39:58;;;;;;;18.45;12.38;;;;;;;8.22;90.55;102704.94;5018650;28;20085;-81
2022/04/15 06:42:25;;;;;;;18.90;11.68;;;;;;;8.25;90.20;102710.25;5001259;28;20033;-81
2022/04/15 06:44:51;;;;;;;19.55;11.38;;;;;;;8.30;89.74;102713.84;5028186;28;20556;-81
2022/04/15 06:47:17;;;;;;;20.77;12.98;;;;;;;8.34;89.67;102713.06;5032829;28;20049;-81
2022/04/15 06:49:43;;;;;;;16.50;11.93;;;;;;;8.35;89.63;102710.44;5030729;28;20049;-81
2022/04/15 06:52:09;;;;;;;21.55;13.43;;;;;;;8.38;89.94;102713.16;5030699;28;20049;-81
2022/04/15 06:54:35;;;;;;;17.63;12.38;;;;;;;8.39;89.72;102714.94;5016039;28;20040;-81
2022/04/15 06:57:01;;;;;;;18.55;11.77;;;;;;;8.40;88.90;102726.38;5031319;28;20042;-81
2022/04/15 06:59:26;;;;;;;19.67;12.73;;;;;;;8.43;89.38;102721.16;4996975;28;20076;-81
2022/04/15 07:01:54;;;;;;;20.48;12.60;;;;;;;8.47;89.68;102722.09;5032069;28;20120;-81
2022/04/15 07:04:20;;;;;;;21.33;11.65;;;;;;;8.49;88.95;102725.66;5028821;28;20041;-81
2022/04/15 07:06:46;;;;;;;21.90;12.23;;;;;;;8.54;88.84;102732.78;5013721;28;20042;-81
2022/04/15 07:09:12;;;;;;;15.32;11.10;;;;;;;8.54;88.70;102732.78;5029764;28;20076;-81
2022/04/15 07:11:37;;;;;;;15.70;10.82;;;;;;;8.57;87.89;102734.59;5024532;28;20053;-81
2022/04/15 07:14:05;;;;;;;15.88;9.93;;;;;;;8.60;88.17;102726.72;5042908;28;20037;-81
2022/04/15 07:16:31;;;;;;;18.92;11.45;;;;;;;8.61;87.27;102736.44;5016973;28;20068;-81
2022/04/15 07:18:57;;;;;;;13.18;9.40;;;;;;;8.64;86.95;102739.13;5037369;28;20488;-81
2022/04/15 07:21:24;;;;;;;16.65;9.82;;;;;;;8.66;87.19;102734.75;5041263;28;20049;-81
2022/04/15 07:23:50;;;;;;;12.45;9.55;;;;;;;8.69;87.63;102740.09;5042788;28;20053;-81
2022/04/15 07:26:15;;;;;;;22.63;10.93;;;;;;;8.73;86.81;102739.28;5029904;28;20028;-81
2022/04/15 07:28:41;;;;;;;12.65;9.15;;;;;;;8.80;87.16;102737.59;5030195;28;20045;-81
2022/04/15 07:31:07;;;;;;;16.05;10.15;;;;;;;8.86;87.03;102742.13;5040128;28;20099;-81
2022/04/15 07:33:32;;;;;;;15.80;10.20;;;;;;;8.92;87.05;102747.47;5036348;28;20075;-81
2022/04/15 07:35:58;;;;;;;18.50;9.60;;;;;;;8.94;85.96;102743.13;5019858;28;20041;-81
2022/04/15 07:38:23;;;;;;;17.13;10.98;;;;;;;8.96;85.93;102747.56;5028693;28;20076;-81
2022/04/15 07:40:49;;;;;;;16.65;10.68;;;;;;;8.99;86.54;102755.53;5038933;28;20113;-81
2022/04/15 07:43:15;;;;;;;16.08;10.07;;;;;;;9.01;86.17;102750.28;5034846;28;20049;-81
2022/04/15 07:45:41;;;;;;;16.05;9.80;;;;;;;9.04;85.64;102747.66;5037948;28;20044;-81
2022/04/15 07:48:07;;;;;;;14.85;9.55;;;;;;;9.04;84.64;102750.31;5025102;28;20063;-81
2022/04/15 07:50:32;;;;;;;14.55;9.27;;;;;;;9.09;84.80;102748.63;5040748;28;20412;-81
2022/04/15 07:52:59;;;;;;;17.42;9.65;;;;;;;9.23;86.15;102748.84;5039149;28;20103;-81
2022/04/15 07:55:28;;;;;;;13.88;8.77;;;;;;;9.31;83.88;102751.59;5031745;28;20349;-81
2022/04/15 07:57:54;;;;;;;12.75;7.68;;;;;;;9.35;82.53;102754.28;5035550;28;20349;-81
2022/04/15 08:00:20;;;;;;;14.95;7.75;;;;;;;9.44;83.07;102757.03;5036668;28;20116;-81
2022/04/15 08:02:46;;;;;;;14.70;7.57;;;;;;;9.54;82.21;102755.41;5038176;28;20358;-81
2022/04/15 08:05:13;;;;;;;12.15;7.65;;;;;;;9.65;81.77;102761.75;5037570;28;20045;-81
2022/04/15 08:07:39;;;;;;;10.60;6.95;;;;;;;9.77;80.42;102761.00;5028231;28;20057;-82
2022/04/15 08:10:06;;;;;;;17.55;7.20;;;;;;;9.86;78.92;102758.44;5014825;28;20067;-82
2022/04/15 08:12:32;;;;;;;13.75;6.95;;;;;;;9.99;79.27;102751.56;5025163;28;20171;-81
2022/04/15 08:14:58;;;;;;;12.95;8.18;;;;;;;10.11;79.99;102753.44;4998312;28;20527;-81
2022/04/15 08:17:24;;;;;;;10.55;7.00;;;;;;;10.27;78.94;102754.50;5013941;28;20203;-82
2022/04/15 08:19:49;;;;;;;13.30;7.20;;;;;;;10.44;78.61;102752.06;5008779;28;20561;-81
2022/04/15 08:22:15;;;;;;;11.35;6.05;;;;;;;10.55;77.55;102759.19;5017759;28;20450;-81
2022/04/15 08:24:42;;;;;;;13.85;5.90;;;;;;;10.83;77.19;102751.50;5028025;28;20425;-81
2022/04/15 08:27:09;;;;;;;8.23;5.43;;;;;;;10.98;72.58;102754.25;5024908;28;20053;-81
2022/04/15 08:29:38;;;;;;;10.38;5.72;;;;;;;11.15;74.84;102754.38;5030447;28;20120;-80
2022/04/15 08:32:08;;;;;;;8.68;5.70;;;;;;;11.31;73.33;102763.31;5027700;28;20052;-80
2022/04/15 08:34:38;;;;;;;10.15;5.85;;;;;;;11.41;72.36;102756.28;5006188;28;20114;-80
2022/04/15 08:37:04;;;;;;;8.77;5.30;;;;;;;11.48;71.74;102763.41;5033209;28;21102;-80
2022/04/15 08:39:30;;;;;;;8.02;6.10;;;;;;;11.60;71.34;102765.22;5029223;28;20044;-80
2022/04/15 08:41:57;;;;;;;9.70;5.88;;;;;;;11.75;71.06;102761.75;5039849;28;20037;-81
2022/04/15 08:44:25;;;;;;;7.45;5.55;;;;;;;11.82;68.16;102772.41;5031394;28;20041;-81
2022/04/15 08:46:51;;;;;;;8.60;4.95;;;;;;;11.77;67.62;102766.19;5040289;28;20116;-81
2022/04/15 08:49:19;;;;;;;7.85;4.75;;;;;;;11.82;69.36;102775.06;5035732;28;20124;-81
2022/04/15 08:51:50;;;;;;;8.65;4.60;;;;;;;11.86;69.13;102775.06;5041821;28;20512;-81
2022/04/15 08:54:16;;;;;;;10.75;5.20;;;;;;;11.91;67.56;102770.69;5015805;28;20052;-81
2022/04/15 08:56:42;;;;;;;11.20;5.35;;;;;;;12.02;68.41;102772.50;5023876;28;20037;-80
2022/04/15 08:59:07;;;;;;;8.90;5.00;;;;;;;12.07;67.63;102774.25;5053683;28;20049;-81
2022/04/15 09:01:33;;;;;;;8.25;4.78;;;;;;;12.12;67.15;102784.03;5039341;28;20049;-80
2022/04/15 09:04:00;;;;;;;7.65;4.78;;;;;;;12.16;67.12;102777.84;4999445;28;20035;-82
2022/04/15 09:06:33;;;;;;;8.45;5.05;;;;;;;12.19;65.89;102777.88;5033097;28;20041;-80
2022/04/15 09:09:12;;;;;;;8.88;4.55;;;;;;;12.23;66.03;102784.06;5021261;28;20040;-81
2022/04/15 09:11:40;;;;;;;8.60;4.78;;;;;;;12.29;65.27;102785.84;5046953;28;20052;-80
2022/04/15 09:14:13;;;;;;;7.13;4.15;;;;;;;12.48;65.09;102783.19;5031654;28;20028;-81
2022/04/15 09:16:43;;;;;;;9.32;4.10;;;;;;;12.56;63.73;102783.25;5032303;28;20112;-81
2022/04/15 09:19:10;;;;;;;5.78;3.85;;;;;;;12.54;63.61;102785.00;5031997;28;20048;-81
2022/04/15 09:21:37;;;;;;;8.48;4.38;;;;;;;12.58;65.71;102784.09;5040710;28;20021;-80
2022/04/15 09:24:03;;;;;;;6.43;3.83;;;;;;;12.61;64.70;102786.78;5032515;28;20048;-79
2022/04/15 09:26:29;;;;;;;6.07;3.92;;;;;;;12.65;64.51;102791.19;5031275;28;20036;-79
2022/04/15 09:28:55;;;;;;;6.60;4.13;;;;;;;12.69;63.80;102786.78;5031303;28;20061;-80
2022/04/15 09:31:22;;;;;;;7.95;4.57;;;;;;;12.69;63.71;102794.75;5047648;28;20420;-81
2022/04/15 09:33:57;;;;;;;9.30;4.10;;;;;;;12.73;63.53;102787.66;5052813;28;20033;-80
2022/04/15 09:36:31;;;;;;;7.80;4.40;;;;;;;12.90;62.93;102785.88;5051146;28;20044;-80
2022/04/15 09:39:10;;;;;;;8.30;4.22;;;;;;;13.11;62.51;102799.19;5039000;28;20395;-81
2022/04/15 09:41:38;;;;;;;7.22;4.35;;;;;;;13.13;61.06;102797.41;5032765;28;20063;-79
2022/04/15 09:44:04;;;;;;;6.00;4.05;;;;;;;13.33;61.48;102793.88;5041464;28;20036;-78
2022/04/15 09:46:31;;;;;;;5.38;4.15;;;;;;;13.63;61.02;102800.00;5016957;28;20035;-82
2022/04/15 09:49:08;;;;;;;6.05;3.95;;;;;;;13.92;61.53;102802.53;5032336;28;20050;-80
2022/04/15 09:51:45;;;;;;;6.05;4.18;;;;;;;14.21;60.66;102797.03;5031097;28;20040;-80
2022/04/15 09:54:28;;;;;;;5.53;4.00;;;;;;;14.41;60.27;102792.50;5032589;28;20416;-81
2022/04/15 09:56:57;;;;;;;7.35;3.97;;;;;;;14.40;57.91;102798.72;5045377;28;20041;-79
2022/04/15 09:59:24;;;;;;;5.97;4.22;;;;;;;14.39;57.19;102796.03;5047124;28;20060;-79
2022/04/15 10:02:02;;;;;;;7.60;3.88;;;;;;;14.39;58.63;102796.94;5032298;28;20460;-81
2022/04/15 10:04:28;;;;;;;7.97;4.07;;;;;;;14.34;57.34;102801.44;5041925;28;20035;-80
2022/04/15 10:06:54;;;;;;;9.35;4.25;;;;;;;14.27;57.39;102799.69;5030213;28;20124;-80
2022/04/15 10:09:21;;;;;;;5.38;3.67;;;;;;;14.15;56.68;102800.63;5031573;28;20095;-80
2022/04/15 10:11:48;;;;;;;4.88;3.63;;;;;;;14.11;57.76;102801.53;5030460;28;20061;-80
2022/04/15 10:14:15;;;;;;;7.03;3.60;;;;;;;14.05;57.64;102806.03;5014244;28;20128;-80
2022/04/15 10:16:42;;;;;;;6.35;3.83;;;;;;;13.97;57.66;102800.72;4997617;28;20091;-80
2022/04/15 10:19:09;;;;;;;5.00;3.75;;;;;;;13.97;58.38;102793.63;5031798;28;20075;-80
2022/04/15 10:21:41;;;;;;;8.07;4.32;;;;;;;14.04;58.64;102798.91;5005435;28;20036;-80
2022/04/15 10:24:09;;;;;;;6.53;3.80;;;;;;;14.08;58.08;102798.91;5031687;28;20057;-80
2022/04/15 10:26:46;;;;;;;6.18;3.67;;;;;;;14.28;58.76;102798.78;5023428;28;20041;-80
2022/04/15 10:29:13;;;;;;;7.10;4.15;;;;;;;14.41;56.22;102804.91;5046547;28;20091;-86
2022/04/15 10:31:44;;;;;;;6.45;3.90;;;;;;;14.51;55.99;102793.28;5047135;28;20354;-79
2022/04/15 10:34:15;;;;;;;7.45;3.28;;;;;;;14.75;55.88;102796.72;5046855;28;20033;-79
2022/04/15 10:36:49;;;;;;;6.47;3.65;;;;;;;15.04;54.65;102785.78;5013868;28;20071;-79
2022/04/15 10:39:21;;;;;;;6.40;3.85;;;;;;;15.20;55.31;102791.84;5030727;28;20103;-78
2022/04/15 10:41:55;;;;;;;5.60;3.72;;;;;;;15.55;55.58;102786.13;5034788;28;20156;-79
2022/04/15 10:44:30;;;;;;;6.43;3.88;;;;;;;15.81;54.09;102793.88;5031593;28;20457;-79
2022/04/15 10:47:12;;;;;;;9.18;3.60;;;;;;;15.72;53.67;102791.31;5038213;28;20552;-79
2022/04/15 10:50:01;;;;;;;8.18;3.80;;;;;;;15.74;53.27;102777.94;5049861;28;20048;-79
2022/04/15 10:52:28;;;;;;;5.97;3.70;;;;;;;15.58;52.12;102788.78;5034174;28;20489;-79
2022/04/15 10:55:04;;;;;;;7.22;4.00;;;;;;;15.76;52.46;102787.69;5031200;28;20069;-79
2022/04/15 10:57:32;;;;;;;7.07;3.78;;;;;;;15.88;51.24;102776.88;5029771;28;20076;-80
2022/04/15 11:02:51;;;;;;;6.85;3.58;;;;;;;16.15;51.45;102785.41;5029464;28;20461;-80
2022/04/15 11:05:35;;;;;;;7.32;3.75;;;;;;;16.31;52.66;102778.03;5029663;28;20393;-80
2022/04/15 11:08:06;;;;;;;5.68;3.80;;;;;;;16.53;51.66;102776.78;5035304;28;20053;-80
2022/04/15 11:10:43;;;;;;;6.18;3.53;;;;;;;16.73;52.00;102779.16;5045654;28;20032;-80
2022/04/15 11:13:27;;;;;;;5.78;3.88;;;;;;;16.95;51.13;102782.38;5045034;28;20368;-80
2022/04/15 11:16:10;;;;;;;6.50;3.88;;;;;;;17.00;50.57;102776.06;5047261;28;21097;-81
2022/04/15 11:18:56;;;;;;;7.53;3.60;;;;;;;16.92;50.58;102784.22;5044011;28;20041;-80
2022/04/15 11:21:39;;;;;;;4.38;3.15;;;;;;;16.90;50.23;102778.91;5044454;28;20036;-80
2022/04/15 11:24:09;;;;;;;5.90;3.47;;;;;;;16.90;49.92;102778.91;5026094;28;20032;-81